Time;durP1;ratioP1;P1;durP2;ratioP2;P2;SDS_P1;SDS_P2;PMS_P1;PMS_P2;Temp;Humidity;BMP_temperature;BMP_pressure;BME280_temperature;BME280_humidity;BME280_pressure;Samples;Min_cycle;Max_cycle;Signal;HPM_P1;HPM_P2
2022/01/18 00:02:01;;;;;;;0.97;0.97;;;;;;;;;;6313736;28;20485;-76
2022/01/18 00:05:07;;;;;;;0.90;0.90;;;;;;;;;;6313142;28;20314;-77
2022/01/18 00:08:17;;;;;;;1.10;1.10;;;;;;;;;;6313943;28;20214;-76
2022/01/18 00:11:22;;;;;;;1.00;1.00;;;;;;;;;;6314299;28;20230;-76
2022/01/18 00:14:38;;;;;;;1.03;1.03;;;;;;;;;;6314258;28;20307;-76
2022/01/18 00:17:52;;;;;;;1.60;1.10;;;;;;;;;;6314794;28;20184;-76
2022/01/18 00:21:12;;;;;;;0.90;0.90;;;;;;;;;;6313057;28;20468;-77
2022/01/18 00:24:25;;;;;;;2.10;1.03;;;;;;;;;;6313640;28;20283;-77
2022/01/18 00:27:30;;;;;;;0.80;0.80;;;;;;;;;;6314248;28;20250;-76
2022/01/18 00:30:55;;;;;;;2.57;1.27;;;;;;;;;;6313893;28;20234;-77
2022/01/18 00:34:05;;;;;;;2.00;1.13;;;;;;;;;;6289835;28;20276;-77
2022/01/18 00:37:32;;;;;;;3.87;1.13;;;;;;;;;;6309148;28;20426;-76
2022/01/18 00:40:38;;;;;;;0.77;0.77;;;;;;;;;;6311490;28;20541;-76
2022/01/18 00:43:43;;;;;;;0.90;0.90;;;;;;;;;;6313834;28;20189;-76
2022/01/18 00:46:47;;;;;;;1.23;1.10;;;;;;;;;;6312912;28;20277;-76
2022/01/18 00:49:58;;;;;;;1.30;1.20;;;;;;;;;;6312197;28;20607;-76
2022/01/18 00:53:06;;;;;;;5.37;1.00;;;;;;;;;;6313822;28;20249;-76
2022/01/18 00:56:21;;;;;;;1.07;1.07;;;;;;;;;;6294442;28;20231;-76
2022/01/18 00:59:25;;;;;;;0.97;0.97;;;;;;;;;;6312760;28;20229;-76
2022/01/18 01:02:30;;;;;;;0.90;0.90;;;;;;;;;;6312358;28;20462;-76
2022/01/18 01:05:35;;;;;;;1.10;1.10;;;;;;;;;;6312381;28;20227;-76
2022/01/18 01:08:39;;;;;;;1.40;1.30;;;;;;;;;;6313191;28;20184;-76
2022/01/18 01:11:44;;;;;;;1.20;1.20;;;;;;;;;;6312944;28;20283;-76
2022/01/18 01:14:51;;;;;;;1.40;1.40;;;;;;;;;;6312161;28;20228;-76
2022/01/18 01:18:11;;;;;;;4.87;1.43;;;;;;;;;;6312888;28;20447;-76
2022/01/18 01:34:49;;;;;;;1.10;1.10;;;;;;;;;;6311993;28;20236;-77
2022/01/18 01:44:43;;;;;;;7.30;1.43;;;;;;;;;;6310979;28;20239;-76
2022/01/18 01:47:51;;;;;;;1.13;1.13;;;;;;;;;;6311891;28;20194;-76
2022/01/18 01:51:03;;;;;;;3.03;1.00;;;;;;;;;;6311344;28;20237;-76
2022/01/18 01:54:09;;;;;;;1.00;1.00;;;;;;;;;;6311622;28;20319;-76
2022/01/18 01:57:14;;;;;;;1.10;1.00;;;;;;;;;;6312214;28;20184;-76
2022/01/18 02:00:21;;;;;;;1.00;1.00;;;;;;;;;;6293812;28;20255;-76
2022/01/18 02:03:26;;;;;;;2.13;1.10;;;;;;;;;;6312269;28;20252;-76
2022/01/18 02:06:30;;;;;;;1.33;1.20;;;;;;;;;;6310805;28;20227;-76
2022/01/18 02:09:34;;;;;;;1.20;1.10;;;;;;;;;;6310735;28;20227;-76
2022/01/18 02:12:39;;;;;;;1.13;1.13;;;;;;;;;;6311911;28;20255;-76
2022/01/18 02:16:08;;;;;;;4.37;1.50;;;;;;;;;;6310783;28;20473;-76
2022/01/18 02:22:32;;;;;;;1.10;1.10;;;;;;;;;;6310744;28;20224;-76
2022/01/18 02:25:36;;;;;;;2.03;1.40;;;;;;;;;;6311050;28;20235;-76
2022/01/18 02:28:40;;;;;;;2.83;1.10;;;;;;;;;;6311763;28;20229;-76
2022/01/18 02:31:45;;;;;;;1.33;1.20;;;;;;;;;;6310698;28;20228;-76
2022/01/18 02:34:50;;;;;;;1.67;1.30;;;;;;;;;;6311024;28;20251;-76
2022/01/18 02:37:55;;;;;;;1.17;1.17;;;;;;;;;;6311521;28;20240;-76
2022/01/18 02:41:00;;;;;;;1.03;1.00;;;;;;;;;;6310569;28;20293;-76
2022/01/18 02:44:07;;;;;;;1.93;1.37;;;;;;;;;;6310864;28;20508;-76
2022/01/18 02:47:13;;;;;;;4.47;1.40;;;;;;;;;;6311624;28;20224;-76
2022/01/18 02:50:17;;;;;;;1.27;1.03;;;;;;;;;;6310370;28;20456;-76
2022/01/18 02:53:22;;;;;;;1.60;1.50;;;;;;;;;;6311855;28;20194;-76
2022/01/18 02:56:29;;;;;;;1.10;1.10;;;;;;;;;;6310674;28;20309;-76
2022/01/18 02:59:38;;;;;;;1.20;1.20;;;;;;;;;;6311185;28;20232;-76
2022/01/18 03:06:05;;;;;;;1.60;1.03;;;;;;;;;;6301950;28;20253;-76
2022/01/18 03:09:12;;;;;;;1.23;1.10;;;;;;;;;;6314489;28;20295;-76
2022/01/18 03:12:16;;;;;;;1.47;1.30;;;;;;;;;;6315961;28;20185;-76
2022/01/18 03:15:20;;;;;;;1.00;1.00;;;;;;;;;;6315243;28;20258;-76
2022/01/18 03:18:25;;;;;;;1.43;1.40;;;;;;;;;;6316184;28;20191;-76
2022/01/18 03:21:29;;;;;;;1.70;1.20;;;;;;;;;;6314570;28;20484;-76
2022/01/18 03:24:45;;;;;;;1.10;1.10;;;;;;;;;;6315179;28;20235;-77
2022/01/18 03:28:06;;;;;;;2.47;1.27;;;;;;;;;;6314556;28;20382;-76
2022/01/18 03:31:13;;;;;;;1.47;1.00;;;;;;;;;;6314665;28;20277;-77
2022/01/18 03:34:18;;;;;;;1.40;1.10;;;;;;;;;;6290220;28;20232;-76
2022/01/18 03:37:22;;;;;;;1.20;1.20;;;;;;;;;;6311033;28;20236;-76
2022/01/18 03:40:29;;;;;;;1.43;1.43;;;;;;;;;;6313968;28;20247;-76
2022/01/18 03:43:35;;;;;;;3.03;1.17;;;;;;;;;;6315256;28;20233;-76
2022/01/18 03:46:39;;;;;;;2.10;1.20;;;;;;;;;;6314628;28;20308;-76
2022/01/18 03:49:46;;;;;;;1.17;1.17;;;;;;;;;;6313767;28;20225;-77
2022/01/18 03:52:50;;;;;;;3.00;1.37;;;;;;;;;;6315147;28;20234;-76
2022/01/18 03:55:56;;;;;;;2.47;1.40;;;;;;;;;;6314050;28;20398;-76
2022/01/18 03:59:00;;;;;;;1.10;1.10;;;;;;;;;;6313287;28;20188;-76
2022/01/18 04:02:06;;;;;;;1.13;1.07;;;;;;;;;;6313883;28;20503;-76
2022/01/18 04:05:12;;;;;;;1.30;1.20;;;;;;;;;;6313564;28;20291;-76
2022/01/18 04:08:17;;;;;;;4.33;1.40;;;;;;;;;;6314703;28;20431;-76
2022/01/18 04:11:22;;;;;;;1.60;1.00;;;;;;;;;;6314334;28;20282;-76
2022/01/18 04:14:26;;;;;;;1.17;1.17;;;;;;;;;;6313096;28;20230;-76
2022/01/18 04:17:50;;;;;;;2.87;1.23;;;;;;;;;;6313450;28;20374;-76
2022/01/18 04:27:44;;;;;;;3.87;1.23;;;;;;;;;;6314259;28;20194;-76
2022/01/18 04:30:49;;;;;;;2.73;1.20;;;;;;;;;;6313161;28;20290;-77
2022/01/18 04:33:54;;;;;;;5.77;1.20;;;;;;;;;;6312486;28;20448;-77
2022/01/18 04:36:59;;;;;;;1.30;1.30;;;;;;;;;;6313925;28;20243;-76
2022/01/18 04:40:11;;;;;;;1.10;1.10;;;;;;;;;;6313200;28;20234;-76
2022/01/18 04:43:23;;;;;;;2.63;1.30;;;;;;;;;;6313523;28;20194;-77
2022/01/18 04:49:50;;;;;;;1.10;1.10;;;;;;;;;;6312277;28;20512;-76
2022/01/18 04:52:54;;;;;;;3.20;1.20;;;;;;;;;;6313930;28;20249;-76
2022/01/18 04:56:05;;;;;;;3.20;1.20;;;;;;;;;;6312627;28;20370;-76
2022/01/18 04:59:11;;;;;;;1.33;1.23;;;;;;;;;;6312955;28;20325;-76
2022/01/18 05:02:16;;;;;;;3.67;1.27;;;;;;;;;;6312642;28;20221;-76
2022/01/18 05:05:24;;;;;;;1.20;1.20;;;;;;;;;;6312456;28;20238;-76
2022/01/18 05:08:28;;;;;;;2.80;1.27;;;;;;;;;;6313566;28;20211;-76
2022/01/18 05:11:37;;;;;;;3.33;1.10;;;;;;;;;;6312577;28;20295;-76
2022/01/18 05:14:45;;;;;;;1.70;1.20;;;;;;;;;;6312508;28;20286;-77
2022/01/18 05:18:11;;;;;;;1.10;1.10;;;;;;;;;;6311964;28;20184;-76
2022/01/18 05:21:24;;;;;;;1.30;1.20;;;;;;;;;;6311932;28;20234;-76
2022/01/18 05:24:29;;;;;;;1.40;1.30;;;;;;;;;;6311959;28;20233;-77
2022/01/18 05:27:34;;;;;;;1.00;1.00;;;;;;;;;;6312178;28;20197;-76
2022/01/18 05:30:40;;;;;;;1.60;1.10;;;;;;;;;;6311542;28;20455;-77
2022/01/18 05:33:47;;;;;;;1.47;1.30;;;;;;;;;;6312153;28;20187;-76
2022/01/18 05:36:51;;;;;;;1.10;1.10;;;;;;;;;;6311590;28;20229;-76
2022/01/18 05:39:55;;;;;;;3.37;1.53;;;;;;;;;;6311239;28;20251;-76
2022/01/18 05:42:59;;;;;;;1.60;1.30;;;;;;;;;;6312815;28;20190;-76
2022/01/18 05:46:05;;;;;;;1.20;1.10;;;;;;;;;;6311661;28;20245;-76
2022/01/18 05:49:09;;;;;;;1.67;1.23;;;;;;;;;;6311784;28;20241;-76
2022/01/18 05:52:14;;;;;;;1.90;1.67;;;;;;;;;;6311612;28;20236;-78
2022/01/18 05:55:19;;;;;;;3.27;1.20;;;;;;;;;;6311394;28;20579;-78
2022/01/18 05:58:24;;;;;;;1.93;1.20;;;;;;;;;;6311701;28;20230;-76
2022/01/18 06:01:34;;;;;;;1.33;0.93;;;;;;;;;;6311730;28;20230;-77
2022/01/18 06:08:00;;;;;;;3.70;1.30;;;;;;;;;;6312137;28;20188;-77
2022/01/18 06:11:05;;;;;;;1.27;1.27;;;;;;;;;;6311591;28;20273;-76
2022/01/18 06:14:10;;;;;;;1.47;0.97;;;;;;;;;;6311450;28;20242;-76
2022/01/18 06:17:17;;;;;;;5.63;1.10;;;;;;;;;;6294368;28;20212;-77
2022/01/18 06:20:22;;;;;;;6.20;1.30;;;;;;;;;;6311045;28;20427;-76
2022/01/18 06:23:26;;;;;;;2.47;1.30;;;;;;;;;;6311693;28;20185;-76
2022/01/18 06:26:30;;;;;;;2.30;1.23;;;;;;;;;;6311186;28;20235;-76
2022/01/18 06:29:34;;;;;;;3.50;1.30;;;;;;;;;;6310866;28;20289;-76
2022/01/18 06:32:43;;;;;;;1.63;1.10;;;;;;;;;;6311351;28;20263;-76
2022/01/18 06:35:47;;;;;;;1.30;1.20;;;;;;;;;;6310560;28;20259;-78
2022/01/18 06:38:51;;;;;;;1.50;0.90;;;;;;;;;;6310319;28;20211;-78
2022/01/18 06:41:55;;;;;;;4.30;1.13;;;;;;;;;;6314603;28;20415;-77
2022/01/18 06:44:59;;;;;;;0.97;0.97;;;;;;;;;;6314442;28;20526;-77
2022/01/18 06:48:05;;;;;;;1.23;1.20;;;;;;;;;;6316003;28;20188;-79
2022/01/18 06:51:10;;;;;;;5.10;1.20;;;;;;;;;;6314792;28;20227;-77
2022/01/18 06:54:15;;;;;;;12.63;1.20;;;;;;;;;;6314461;28;20225;-78
2022/01/18 06:57:19;;;;;;;1.00;1.00;;;;;;;;;;6314745;28;20276;-77
2022/01/18 07:00:24;;;;;;;4.93;1.30;;;;;;;;;;6313903;28;20234;-76
2022/01/18 07:03:29;;;;;;;2.53;1.43;;;;;;;;;;6315994;28;20207;-76
2022/01/18 07:06:34;;;;;;;1.30;1.27;;;;;;;;;;6313996;28;20256;-76
2022/01/18 07:09:38;;;;;;;8.47;1.20;;;;;;;;;;6313500;28;20326;-76
2022/01/18 07:12:42;;;;;;;1.43;1.43;;;;;;;;;;6313242;28;20434;-76
2022/01/18 07:15:47;;;;;;;8.27;1.50;;;;;;;;;;6313499;28;20255;-76
2022/01/18 07:18:52;;;;;;;13.43;1.77;;;;;;;;;;6313863;28;20211;-76
2022/01/18 07:21:56;;;;;;;8.80;1.90;;;;;;;;;;6314448;28;20188;-76
2022/01/18 07:25:02;;;;;;;3.23;1.30;;;;;;;;;;6312973;28;20243;-76
2022/01/18 07:28:06;;;;;;;9.90;1.40;;;;;;;;;;6314054;28;20189;-76
2022/01/18 07:31:11;;;;;;;1.10;1.10;;;;;;;;;;6313181;28;20228;-76
2022/01/18 07:34:16;;;;;;;4.53;1.43;;;;;;;;;;6313640;28;20235;-76
2022/01/18 07:37:21;;;;;;;1.97;1.40;;;;;;;;;;6275764;28;1112870;-76
2022/01/18 07:40:25;;;;;;;7.00;1.87;;;;;;;;;;6314391;28;20238;-76
2022/01/18 07:43:30;;;;;;;11.93;1.40;;;;;;;;;;6315503;28;20184;-76
2022/01/18 07:46:34;;;;;;;2.10;1.10;;;;;;;;;;6314916;28;20233;-76
2022/01/18 07:49:39;;;;;;;6.13;1.60;;;;;;;;;;6314147;28;20300;-76
2022/01/18 07:52:43;;;;;;;1.40;1.40;;;;;;;;;;6315233;28;20247;-76
2022/01/18 07:55:48;;;;;;;9.70;1.33;;;;;;;;;;6314259;28;20228;-76
2022/01/18 07:58:52;;;;;;;4.07;1.40;;;;;;;;;;6314670;28;20248;-77
2022/01/18 08:01:56;;;;;;;4.97;1.40;;;;;;;;;;6313736;28;20185;-76
2022/01/18 08:05:02;;;;;;;3.13;1.23;;;;;;;;;;6313765;28;20291;-76
2022/01/18 08:08:06;;;;;;;1.40;1.30;;;;;;;;;;6315236;28;20197;-76
2022/01/18 08:11:12;;;;;;;1.50;1.30;;;;;;;;;;6313984;28;20269;-76
2022/01/18 08:14:20;;;;;;;1.50;1.50;;;;;;;;;;6313196;28;20226;-76
2022/01/18 08:17:24;;;;;;;7.73;1.70;;;;;;;;;;6313430;28;20410;-76
2022/01/18 08:20:30;;;;;;;2.73;1.40;;;;;;;;;;6313899;28;20228;-76
2022/01/18 08:23:34;;;;;;;4.13;1.40;;;;;;;;;;6313358;28;20190;-76
2022/01/18 08:26:38;;;;;;;1.83;1.37;;;;;;;;;;6313144;28;20228;-76
2022/01/18 08:29:42;;;;;;;1.20;1.17;;;;;;;;;;6313610;28;20227;-76
2022/01/18 08:32:54;;;;;;;7.27;1.40;;;;;;;;;;6281858;28;20201;-76
2022/01/18 08:36:00;;;;;;;2.83;1.60;;;;;;;;;;6280338;28;20242;-76
2022/01/18 08:39:05;;;;;;;4.40;1.23;;;;;;;;;;6263971;28;20450;-76
2022/01/18 08:42:10;;;;;;;1.43;1.33;;;;;;;;;;6264523;28;20264;-77
2022/01/18 08:45:14;;;;;;;2.47;1.07;;;;;;;;;;6263261;28;20275;-77
2022/01/18 08:48:23;;;;;;;3.67;1.20;;;;;;;;;;6264258;28;20199;-77
2022/01/18 08:51:29;;;;;;;4.73;1.10;;;;;;;;;;6263332;28;20246;-77
2022/01/18 08:54:34;;;;;;;4.13;1.43;;;;;;;;;;6263539;28;20233;-76
2022/01/18 08:57:39;;;;;;;7.10;1.53;;;;;;;;;;6263859;28;20399;-76
2022/01/18 09:00:43;;;;;;;2.73;1.07;;;;;;;;;;6263216;28;20521;-76
2022/01/18 09:03:49;;;;;;;1.60;0.90;;;;;;;;;;6262982;28;20256;-76
2022/01/18 09:06:56;;;;;;;1.13;1.13;;;;;;;;;;6238609;28;20538;-76
2022/01/18 09:10:05;;;;;;;3.53;1.40;;;;;;;;;;6248178;28;20236;-76
2022/01/18 09:13:10;;;;;;;11.40;1.53;;;;;;;;;;6263624;28;20249;-76
2022/01/18 09:16:14;;;;;;;4.83;1.33;;;;;;;;;;6242991;28;20682;-76
2022/01/18 09:19:18;;;;;;;2.67;1.10;;;;;;;;;;6241914;28;20229;-76
2022/01/18 09:22:24;;;;;;;4.20;1.40;;;;;;;;;;6263882;28;20187;-76
2022/01/18 09:25:30;;;;;;;1.30;1.20;;;;;;;;;;6262564;28;20239;-77
2022/01/18 09:28:34;;;;;;;2.40;1.30;;;;;;;;;;6244864;28;20517;-77
2022/01/18 09:31:38;;;;;;;3.23;0.93;;;;;;;;;;6262432;28;20235;-77
2022/01/18 09:34:42;;;;;;;2.13;1.17;;;;;;;;;;6262578;28;20226;-77
2022/01/18 09:37:49;;;;;;;1.10;1.00;;;;;;;;;;6285825;28;20268;-77
2022/01/18 09:40:53;;;;;;;1.10;1.10;;;;;;;;;;6286690;28;20236;-77
2022/01/18 09:43:58;;;;;;;6.40;1.30;;;;;;;;;;6287238;28;20223;-77
2022/01/18 09:47:04;;;;;;;2.00;1.23;;;;;;;;;;6286416;28;20192;-77
2022/01/18 09:50:11;;;;;;;11.27;1.37;;;;;;;;;;6286030;28;20232;-77
2022/01/18 09:53:16;;;;;;;7.00;1.40;;;;;;;;;;6286455;28;20210;-77
2022/01/18 09:56:20;;;;;;;1.20;1.20;;;;;;;;;;6286197;28;20422;-77
2022/01/18 09:59:25;;;;;;;6.10;1.20;;;;;;;;;;6287092;28;20258;-78
2022/01/18 10:02:29;;;;;;;5.53;1.50;;;;;;;;;;6287219;28;20195;-77
2022/01/18 10:05:34;;;;;;;1.13;1.13;;;;;;;;;;6286328;28;20237;-77
2022/01/18 10:08:42;;;;;;;8.50;1.70;;;;;;;;;;6287575;28;20191;-77
2022/01/18 10:12:10;;;;;;;6.67;1.30;;;;;;;;;;6286109;28;20230;-77
2022/01/18 10:15:18;;;;;;;9.63;1.17;;;;;;;;;;6286301;28;20229;-77
2022/01/18 10:18:34;;;;;;;2.43;1.10;;;;;;;;;;6287852;28;20223;-77
2022/01/18 10:21:45;;;;;;;2.40;0.77;;;;;;;;;;6286377;28;20241;-76
2022/01/18 10:24:52;;;;;;;5.17;1.00;;;;;;;;;;6286314;28;20286;-76
2022/01/18 10:27:56;;;;;;;4.97;0.93;;;;;;;;;;6286445;28;20245;-76
2022/01/18 10:31:05;;;;;;;2.70;1.13;;;;;;;;;;6285487;28;20582;-75
2022/01/18 10:34:41;;;;;;;3.47;0.90;;;;;;;;;;6311176;28;20477;-76
2022/01/18 10:37:45;;;;;;;3.23;1.57;;;;;;;;;;6310798;28;20259;-76
2022/01/18 10:40:50;;;;;;;12.63;1.43;;;;;;;;;;6310759;28;20296;-76
2022/01/18 10:44:06;;;;;;;2.20;0.90;;;;;;;;;;6310061;28;20513;-77
2022/01/18 10:47:11;;;;;;;1.70;1.10;;;;;;;;;;6311918;28;20193;-76
2022/01/18 10:50:17;;;;;;;1.40;1.00;;;;;;;;;;6310640;28;20233;-76
2022/01/18 10:53:25;;;;;;;5.40;1.10;;;;;;;;;;6311253;28;20188;-75
2022/01/18 10:56:40;;;;;;;3.20;1.13;;;;;;;;;;6310824;28;20233;-76
2022/01/18 10:59:44;;;;;;;2.23;1.03;;;;;;;;;;6310764;28;20258;-76
2022/01/18 11:02:50;;;;;;;9.63;1.43;;;;;;;;;;6311624;28;20225;-76
2022/01/18 11:05:55;;;;;;;5.03;1.40;;;;;;;;;;6310868;28;20272;-78
2022/01/18 11:09:07;;;;;;;3.87;1.23;;;;;;;;;;6311745;28;20198;-77
2022/01/18 11:12:20;;;;;;;0.90;0.90;;;;;;;;;;6311849;28;20187;-77
2022/01/18 11:15:27;;;;;;;3.20;1.33;;;;;;;;;;6310446;28;20238;-76
2022/01/18 11:18:36;;;;;;;1.00;1.00;;;;;;;;;;6310165;28;20372;-76
2022/01/18 11:21:40;;;;;;;1.60;0.90;;;;;;;;;;6310364;28;20303;-76
2022/01/18 11:24:47;;;;;;;1.10;1.00;;;;;;;;;;6309891;28;20298;-77
2022/01/18 11:27:56;;;;;;;1.00;1.00;;;;;;;;;;6315451;28;20185;-76
2022/01/18 11:31:00;;;;;;;7.83;1.40;;;;;;;;;;6314246;28;20231;-76
2022/01/18 11:34:06;;;;;;;3.20;1.17;;;;;;;;;;6290426;28;20189;-76
2022/01/18 11:37:17;;;;;;;4.77;1.10;;;;;;;;;;6307785;28;20427;-76
2022/01/18 11:40:28;;;;;;;9.00;1.10;;;;;;;;;;6314750;28;20239;-77
2022/01/18 11:43:38;;;;;;;2.83;1.30;;;;;;;;;;6314347;28;20534;-77
2022/01/18 11:46:47;;;;;;;4.47;1.10;;;;;;;;;;6313891;28;20291;-77
2022/01/18 11:49:52;;;;;;;1.03;1.03;;;;;;;;;;6314028;28;20411;-77
2022/01/18 11:53:23;;;;;;;3.57;1.00;;;;;;;;;;6314063;28;20209;-77
2022/01/18 11:56:34;;;;;;;1.10;1.10;;;;;;;;;;6313832;28;20232;-78
2022/01/18 11:59:41;;;;;;;3.30;1.10;;;;;;;;;;6314637;28;20226;-77
2022/01/18 12:02:48;;;;;;;1.00;1.00;;;;;;;;;;6314882;28;20183;-78
2022/01/18 12:05:53;;;;;;;1.27;1.27;;;;;;;;;;6313617;28;20240;-77
2022/01/18 12:08:57;;;;;;;1.00;0.90;;;;;;;;;;6313259;28;20252;-77
2022/01/18 12:12:01;;;;;;;4.43;1.20;;;;;;;;;;6314548;28;20278;-77
2022/01/18 12:15:46;;;;;;;5.10;1.07;;;;;;;;;;6313340;28;20452;-77
2022/01/18 12:18:53;;;;;;;5.70;1.30;;;;;;;;;;6313840;28;20191;-78
2022/01/18 12:21:58;;;;;;;5.40;1.60;;;;;;;;;;6314692;28;20187;-77
2022/01/18 12:25:30;;;;;;;5.13;1.20;;;;;;;;;;6313618;28;20258;-77
2022/01/18 12:29:18;;;;;;;5.50;1.30;;;;;;;;;;6314653;28;20194;-77
2022/01/18 12:32:49;;;;;;;2.07;1.23;;;;;;;;;;6304237;28;20221;-77
2022/01/18 12:36:27;;;;;;;5.97;1.10;;;;;;;;;;6295354;28;20270;-77
2022/01/18 12:40:05;;;;;;;2.43;1.20;;;;;;;;;;6313513;28;20261;-77
2022/01/18 12:46:36;;;;;;;4.13;1.23;;;;;;;;;;6312771;28;20314;-77
2022/01/18 12:49:42;;;;;;;5.87;1.10;;;;;;;;;;6312277;28;20414;-77
2022/01/18 12:52:48;;;;;;;3.70;1.10;;;;;;;;;;6313626;28;20262;-77
2022/01/18 12:55:55;;;;;;;1.60;1.20;;;;;;;;;;6313019;28;20232;-77
2022/01/18 12:59:02;;;;;;;2.60;1.10;;;;;;;;;;6313327;28;20184;-77
2022/01/18 13:02:20;;;;;;;1.40;1.10;;;;;;;;;;6312521;28;20405;-77
2022/01/18 13:05:33;;;;;;;1.73;1.33;;;;;;;;;;6312070;28;20424;-77
2022/01/18 13:08:43;;;;;;;1.40;1.30;;;;;;;;;;6313350;28;20186;-77
2022/01/18 13:11:48;;;;;;;2.93;1.30;;;;;;;;;;6312160;28;20246;-77
2022/01/18 13:14:55;;;;;;;1.23;1.10;;;;;;;;;;6312786;28;20281;-77
2022/01/18 13:25:04;;;;;;;2.40;1.40;;;;;;;;;;6311709;28;20411;-77
2022/01/18 13:28:14;;;;;;;5.70;1.20;;;;;;;;;;6312787;28;20246;-77
2022/01/18 13:31:20;;;;;;;1.03;1.03;;;;;;;;;;6311994;28;20238;-77
2022/01/18 13:34:30;;;;;;;5.07;1.10;;;;;;;;;;6311378;28;20434;-77
2022/01/18 13:37:37;;;;;;;40.30;16.37;;;;;;;;;;6312701;28;20440;-77
2022/01/18 13:40:45;;;;;;;1.37;1.27;;;;;;;;;;6311526;28;20254;-77
2022/01/18 13:43:49;;;;;;;4.57;1.17;;;;;;;;;;6312746;28;20191;-77
2022/01/18 13:46:53;;;;;;;13.33;1.40;;;;;;;;;;6311996;28;20235;-77
2022/01/18 13:49:57;;;;;;;1.70;1.23;;;;;;;;;;6311560;28;20242;-77
2022/01/18 13:53:08;;;;;;;8.60;1.30;;;;;;;;;;6312298;28;20261;-77
2022/01/18 13:56:15;;;;;;;6.67;1.30;;;;;;;;;;6310890;28;20488;-77
2022/01/18 13:59:26;;;;;;;5.63;1.10;;;;;;;;;;6310650;28;20541;-77
2022/01/18 14:02:30;;;;;;;1.57;1.13;;;;;;;;;;6312251;28;20209;-77
2022/01/18 14:05:34;;;;;;;6.33;1.50;;;;;;;;;;6311454;28;20251;-77
2022/01/18 14:08:41;;;;;;;4.27;1.23;;;;;;;;;;6311590;28;20297;-77
2022/01/18 14:11:50;;;;;;;5.00;1.23;;;;;;;;;;6311555;28;20230;-77
2022/01/18 14:14:57;;;;;;;2.50;1.40;;;;;;;;;;6311015;28;20230;-77
2022/01/18 14:18:03;;;;;;;3.00;1.30;;;;;;;;;;6311008;28;20498;-77
2022/01/18 14:21:24;;;;;;;2.10;1.00;;;;;;;;;;6310743;28;20235;-77
2022/01/18 14:24:36;;;;;;;2.53;1.20;;;;;;;;;;6310675;28;20298;-77
2022/01/18 14:27:43;;;;;;;4.83;1.40;;;;;;;;;;6310758;28;20275;-77
2022/01/18 14:30:48;;;;;;;9.63;1.40;;;;;;;;;;6310732;28;20244;-77
2022/01/18 14:33:52;;;;;;;3.70;1.20;;;;;;;;;;6288570;28;20203;-77
2022/01/18 14:36:56;;;;;;;2.00;1.37;;;;;;;;;;6302524;28;20273;-77
2022/01/18 14:40:04;;;;;;;1.33;1.23;;;;;;;;;;6310909;28;20251;-77
2022/01/18 14:43:13;;;;;;;4.10;1.10;;;;;;;;;;6312076;28;20184;-77
2022/01/18 14:46:25;;;;;;;2.07;1.30;;;;;;;;;;6311011;28;20404;-77
2022/01/18 14:49:30;;;;;;;2.67;1.10;;;;;;;;;;6292385;28;20224;-77
2022/01/18 14:52:34;;;;;;;1.80;1.20;;;;;;;;;;6310630;28;20190;-77
2022/01/18 14:55:40;;;;;;;3.17;1.13;;;;;;;;;;6311106;28;20230;-77
2022/01/18 14:58:44;;;;;;;2.70;1.00;;;;;;;;;;6310295;28;20521;-77
2022/01/18 15:01:49;;;;;;;4.67;1.60;;;;;;;;;;6314170;28;20238;-78
2022/01/18 15:04:53;;;;;;;2.40;1.03;;;;;;;;;;6315541;28;20227;-78
2022/01/18 15:07:58;;;;;;;1.40;1.30;;;;;;;;;;6315412;28;20272;-78
2022/01/18 15:11:04;;;;;;;1.33;1.23;;;;;;;;;;6315049;28;20554;-77
2022/01/18 15:14:08;;;;;;;1.17;1.07;;;;;;;;;;6315874;28;20192;-78
2022/01/18 15:17:13;;;;;;;7.20;1.10;;;;;;;;;;6315805;28;20187;-77
2022/01/18 15:20:18;;;;;;;5.87;1.33;;;;;;;;;;6314789;28;20227;-77
2022/01/18 15:23:22;;;;;;;3.20;1.30;;;;;;;;;;6315899;28;20214;-78
2022/01/18 15:26:32;;;;;;;1.10;1.10;;;;;;;;;;6315033;28;20333;-78
2022/01/18 15:29:38;;;;;;;3.00;1.30;;;;;;;;;;6314872;28;20285;-78
2022/01/18 15:32:44;;;;;;;9.67;1.50;;;;;;;;;;6314925;28;20200;-77
2022/01/18 15:35:48;;;;;;;3.40;1.07;;;;;;;;;;6315179;28;20243;-77
2022/01/18 15:38:52;;;;;;;1.50;1.40;;;;;;;;;;6314329;28;20220;-78
2022/01/18 15:41:58;;;;;;;3.30;1.23;;;;;;;;;;6314448;28;20463;-77
2022/01/18 15:45:03;;;;;;;2.30;1.30;;;;;;;;;;6314730;28;20288;-77
2022/01/18 15:48:11;;;;;;;1.20;1.10;;;;;;;;;;6315280;28;20192;-77
2022/01/18 15:51:21;;;;;;;5.50;1.20;;;;;;;;;;6314257;28;20281;-77
2022/01/18 15:54:26;;;;;;;1.30;1.20;;;;;;;;;;6313636;28;20353;-77
2022/01/18 15:57:34;;;;;;;2.97;1.20;;;;;;;;;;6315274;28;20194;-77
2022/01/18 16:00:42;;;;;;;7.20;1.63;;;;;;;;;;6314737;28;20230;-77
2022/01/18 16:03:47;;;;;;;6.80;1.23;;;;;;;;;;6313852;28;20212;-77
2022/01/18 16:06:51;;;;;;;2.53;1.10;;;;;;;;;;6313893;28;20400;-77
2022/01/18 16:10:15;;;;;;;4.03;1.17;;;;;;;;;;6314264;28;20231;-77
2022/01/18 16:13:21;;;;;;;1.93;1.50;;;;;;;;;;6313717;28;20192;-77
2022/01/18 16:16:25;;;;;;;3.23;1.20;;;;;;;;;;6314384;28;20227;-76
2022/01/18 16:19:29;;;;;;;1.10;1.10;;;;;;;;;;6313916;28;20281;-76
2022/01/18 16:22:33;;;;;;;3.53;1.20;;;;;;;;;;6313325;28;20370;-76
2022/01/18 16:25:37;;;;;;;1.37;1.30;;;;;;;;;;6313526;28;20290;-76
2022/01/18 16:28:43;;;;;;;2.20;1.37;;;;;;;;;;6314132;28;20197;-76
2022/01/18 16:31:48;;;;;;;3.50;1.07;;;;;;;;;;6308299;28;20233;-76
2022/01/18 16:34:52;;;;;;;1.10;1.10;;;;;;;;;;6287633;28;20685;-76
2022/01/18 16:37:59;;;;;;;2.90;1.07;;;;;;;;;;6313305;28;20235;-76
2022/01/18 16:41:03;;;;;;;5.90;1.70;;;;;;;;;;6313189;28;20297;-77
2022/01/18 16:44:09;;;;;;;1.93;1.30;;;;;;;;;;6312947;28;20548;-78
2022/01/18 16:47:13;;;;;;;1.27;1.27;;;;;;;;;;6313552;28;20184;-77
2022/01/18 16:50:18;;;;;;;4.00;1.30;;;;;;;;;;6314231;28;20238;-78
2022/01/18 16:53:23;;;;;;;3.57;1.20;;;;;;;;;;6314503;28;20187;-78
2022/01/18 16:56:27;;;;;;;2.03;1.37;;;;;;;;;;6313515;28;20227;-78
2022/01/18 16:59:32;;;;;;;6.80;1.23;;;;;;;;;;6313234;28;20306;-77
2022/01/18 17:02:37;;;;;;;5.77;1.20;;;;;;;;;;6313962;28;20274;-77
2022/01/18 17:05:43;;;;;;;1.73;1.43;;;;;;;;;;6311891;28;20226;-77
2022/01/18 17:08:47;;;;;;;1.23;1.20;;;;;;;;;;6313864;28;20187;-77
2022/01/18 17:11:51;;;;;;;3.17;1.33;;;;;;;;;;6288463;28;20351;-76
2022/01/18 17:14:57;;;;;;;1.00;1.00;;;;;;;;;;6287590;28;20306;-77
2022/01/18 17:18:01;;;;;;;2.40;1.00;;;;;;;;;;6287461;28;20267;-77
2022/01/18 17:21:07;;;;;;;2.93;1.30;;;;;;;;;;6287731;28;20541;-76
2022/01/18 17:24:12;;;;;;;1.10;1.10;;;;;;;;;;6287046;28;20232;-76
2022/01/18 17:27:16;;;;;;;1.30;1.20;;;;;;;;;;6288280;28;20253;-76
2022/01/18 17:30:22;;;;;;;2.63;1.60;;;;;;;;;;6287176;28;20455;-77
2022/01/18 17:33:26;;;;;;;4.37;1.57;;;;;;;;;;6288099;28;20267;-77
2022/01/18 17:36:30;;;;;;;1.60;1.20;;;;;;;;;;6287829;28;20235;-77
2022/01/18 17:39:35;;;;;;;3.23;1.50;;;;;;;;;;6287919;28;20223;-77
2022/01/18 17:42:40;;;;;;;1.20;1.20;;;;;;;;;;6287949;28;20284;-77
2022/01/18 17:45:46;;;;;;;2.63;1.30;;;;;;;;;;6288550;28;20342;-77
2022/01/18 17:48:50;;;;;;;1.23;1.23;;;;;;;;;;6288476;28;20187;-78
2022/01/18 17:51:55;;;;;;;4.00;1.50;;;;;;;;;;6287289;28;20201;-78
2022/01/18 17:54:59;;;;;;;1.43;1.33;;;;;;;;;;6289551;28;20235;-77
2022/01/18 17:58:05;;;;;;;1.70;1.30;;;;;;;;;;6289140;28;20235;-77
2022/01/18 18:01:28;;;;;;;1.20;1.20;;;;;;;;;;6291105;28;20239;-77
2022/01/18 18:04:36;;;;;;;1.70;1.60;;;;;;;;;;6290299;28;20299;-77
2022/01/18 18:07:53;;;;;;;3.60;1.43;;;;;;;;;;6293317;28;20188;-78
2022/01/18 18:10:59;;;;;;;1.30;1.30;;;;;;;;;;6291238;28;20276;-78
2022/01/18 18:14:08;;;;;;;1.40;1.40;;;;;;;;;;6288370;28;20214;-77
2022/01/18 18:17:13;;;;;;;3.27;1.20;;;;;;;;;;6291523;28;20184;-77
2022/01/18 18:20:19;;;;;;;3.13;1.40;;;;;;;;;;6291980;28;20409;-77
2022/01/18 18:23:23;;;;;;;4.27;1.50;;;;;;;;;;6292402;28;20211;-78
2022/01/18 18:26:27;;;;;;;2.37;1.30;;;;;;;;;;6291807;28;20249;-77
2022/01/18 18:29:32;;;;;;;1.30;1.30;;;;;;;;;;6273143;28;20231;-78
2022/01/18 18:32:38;;;;;;;1.27;1.27;;;;;;;;;;6287278;28;20199;-77
2022/01/18 18:35:42;;;;;;;1.63;1.50;;;;;;;;;;6291439;28;20243;-79
2022/01/18 18:38:48;;;;;;;1.70;1.50;;;;;;;;;;6294350;28;20190;-79
2022/01/18 18:42:04;;;;;;;1.27;1.27;;;;;;;;;;6317908;28;20374;-76
2022/01/18 18:45:10;;;;;;;1.30;1.30;;;;;;;;;;6315866;28;20407;-76
2022/01/18 18:48:16;;;;;;;1.43;1.33;;;;;;;;;;6316476;28;20191;-77
2022/01/18 18:51:20;;;;;;;2.93;1.60;;;;;;;;;;6315891;28;20294;-77
2022/01/18 18:54:24;;;;;;;1.57;1.50;;;;;;;;;;6316029;28;20248;-76
2022/01/18 18:57:40;;;;;;;2.73;1.50;;;;;;;;;;6316485;28;20261;-77
2022/01/18 19:00:49;;;;;;;1.53;1.47;;;;;;;;;;6315122;28;20546;-76
2022/01/18 19:03:54;;;;;;;1.40;1.30;;;;;;;;;;6315748;28;20212;-77
2022/01/18 19:06:58;;;;;;;1.40;1.30;;;;;;;;;;6315743;28;20194;-76
2022/01/18 19:10:02;;;;;;;3.13;1.60;;;;;;;;;;6314769;28;20514;-76
2022/01/18 19:13:07;;;;;;;2.20;1.37;;;;;;;;;;6316088;28;20190;-77
2022/01/18 19:16:11;;;;;;;2.50;1.57;;;;;;;;;;6315445;28;20257;-77
2022/01/18 19:19:18;;;;;;;2.50;1.73;;;;;;;;;;6315682;28;20235;-76
2022/01/18 19:22:22;;;;;;;4.40;1.67;;;;;;;;;;6316187;28;20184;-76
2022/01/18 19:25:29;;;;;;;3.97;1.77;;;;;;;;;;6314812;28;20242;-77
2022/01/18 19:28:34;;;;;;;5.80;1.80;;;;;;;;;;6315066;28;20495;-76
2022/01/18 19:31:44;;;;;;;2.63;1.80;;;;;;;;;;6310298;28;20226;-77
2022/01/18 19:34:49;;;;;;;1.40;1.40;;;;;;;;;;6289838;28;20231;-77